Time;durP1;ratioP1;P1;durP2;ratioP2;P2;SDS_P1;SDS_P2;PMS_P1;PMS_P2;Temp;Humidity;BMP_temperature;BMP_pressure;BME280_temperature;BME280_humidity;BME280_pressure;Samples;Min_cycle;Max_cycle;Signal;HPM_P1;HPM_P2
2023/06/09 00:00:21;;;;;;;8.20;7.60;;;20.40;47.00;;;;;;20596;6876;118727;-81
2023/06/09 00:02:50;;;;;;;8.65;8.07;;;20.20;47.00;;;;;;20452;6861;308846;-79
2023/06/09 00:05:17;;;;;;;8.97;8.47;;;20.20;47.20;;;;;;20447;6861;280095;-81
2023/06/09 00:07:42;;;;;;;8.20;7.70;;;20.40;47.00;;;;;;20671;6861;118979;-79
2023/06/09 00:10:07;;;;;;;7.60;7.20;;;20.20;46.90;;;;;;20649;6861;117853;-80
2023/06/09 00:12:33;;;;;;;8.80;8.30;;;19.80;47.20;;;;;;20453;6861;278600;-82
2023/06/09 00:14:59;;;;;;;8.73;8.27;;;19.80;47.80;;;;;;20445;6861;313159;-81
2023/06/09 00:17:25;;;;;;;9.20;8.60;;;20.00;47.60;;;;;;20458;6859;281899;-79
2023/06/09 00:19:52;;;;;;;8.85;8.30;;;20.00;47.20;;;;;;20667;6860;117092;-79
2023/06/09 00:22:17;;;;;;;8.37;7.83;;;19.90;47.10;;;;;;20646;6860;117635;-80
2023/06/09 00:24:42;;;;;;;8.73;8.07;;;19.60;47.60;;;;;;20668;6860;118022;-83
2023/06/09 00:27:08;;;;;;;8.33;7.83;;;19.30;47.90;;;;;;20668;6860;123333;-79
2023/06/09 00:29:33;;;;;;;8.50;8.00;;;19.10;48.20;;;;;;20664;6860;123334;-79
2023/06/09 00:31:58;;;;;;;9.70;9.10;;;18.90;48.40;;;;;;20465;6860;300969;-80
2023/06/09 00:34:24;;;;;;;9.55;8.95;;;19.10;49.20;;;;;;20443;6860;332966;-79
2023/06/09 00:36:50;;;;;;;8.52;8.00;;;19.40;48.70;;;;;;20677;6861;117451;-81
2023/06/09 00:39:18;;;;;;;8.60;8.10;;;19.10;48.80;;;;;;20674;6861;119538;-79
2023/06/09 00:41:43;;;;;;;8.57;7.97;;;19.00;48.70;;;;;;20666;6861;117239;-82
2023/06/09 00:44:09;;;;;;;9.80;9.10;;;18.80;48.90;;;;;;20443;6861;316008;-82
2023/06/09 00:46:35;;;;;;;9.77;9.05;;;19.30;48.90;;;;;;20456;6861;279910;-81
2023/06/09 00:49:00;;;;;;;9.87;9.27;;;19.30;48.80;;;;;;20458;6861;308919;-81
2023/06/09 00:51:28;;;;;;;9.02;8.40;;;19.40;48.20;;;;;;20664;6861;117446;-82
2023/06/09 00:53:54;;;;;;;8.67;7.87;;;19.40;48.20;;;;;;20669;6861;119511;-82
2023/06/09 00:56:23;;;;;;;8.87;8.37;;;19.10;49.10;;;;;;20437;6861;318525;-82
2023/06/09 00:58:46;;;;;;;7.83;7.33;;;19.10;48.90;;;;;;20650;6861;121538;-79
2023/06/09 01:01:11;;;;;;;8.95;8.30;;;19.10;48.80;;;;;;20672;6861;119900;-82
2023/06/09 01:03:38;;;;;;;9.80;9.00;;;18.80;48.80;;;;;;20669;6861;117868;-80
2023/06/09 01:06:09;;;;;;;11.95;11.15;;;18.60;49.00;;;;;;20456;6861;311981;-79
2023/06/09 01:08:34;;;;;;;12.32;11.52;;;18.80;49.20;;;;;;20449;6861;308612;-79
2023/06/09 01:11:00;;;;;;;9.80;9.20;;;19.20;48.90;;;;;;20650;6861;121595;-82
2023/06/09 01:13:42;;;;;;;8.23;7.72;;;19.00;48.60;;;;;;20657;6861;123518;-79
2023/06/09 01:16:20;;;;;;;8.97;8.43;;;18.70;49.00;;;;;;20624;6861;120199;-79
2023/06/09 01:18:47;;;;;;;8.53;8.03;;;18.40;49.40;;;;;;20656;6861;118067;-83
2023/06/09 01:21:12;;;;;;;9.10;8.60;;;18.40;50.50;;;;;;20440;6861;309163;-81
2023/06/09 01:24:14;;;;;;;9.07;8.48;;;18.90;50.00;;;;;;20458;6861;293358;-82
2023/06/09 01:26:40;;;;;;;9.13;8.63;;;18.80;50.00;;;;;;20437;6859;309557;-82
2023/06/09 01:29:05;;;;;;;9.50;8.90;;;19.30;48.70;;;;;;20450;6860;338248;-80
2023/06/09 01:31:31;;;;;;;9.20;8.70;;;19.50;48.10;;;;;;20461;6860;307892;-83
2023/06/09 01:33:58;;;;;;;8.43;7.93;;;19.70;47.80;;;;;;20656;6860;117428;-80
2023/06/09 01:36:23;;;;;;;9.23;8.73;;;19.40;47.70;;;;;;20406;6860;444806;-81
2023/06/09 01:38:50;;;;;;;9.82;9.30;;;19.60;48.00;;;;;;20447;6860;314338;-80
2023/06/09 01:41:17;;;;;;;9.23;8.50;;;19.50;47.90;;;;;;20662;6860;121013;-82
2023/06/09 01:43:42;;;;;;;9.50;9.00;;;19.30;48.10;;;;;;20453;6860;278633;-82
2023/06/09 01:46:08;;;;;;;9.00;8.40;;;19.30;48.40;;;;;;20642;6860;120309;-80
2023/06/09 01:48:41;;;;;;;10.02;9.48;;;19.10;48.50;;;;;;20458;6861;279595;-80
2023/06/09 01:51:09;;;;;;;10.63;10.03;;;19.20;48.70;;;;;;20426;6861;307862;-82
2023/06/09 01:53:34;;;;;;;10.23;9.63;;;19.30;48.50;;;;;;20451;6861;312615;-80
2023/06/09 01:56:23;;;;;;;10.20;9.60;;;19.40;48.30;;;;;;20448;6861;313043;-81
2023/06/09 01:58:49;;;;;;;9.33;8.80;;;19.50;48.20;;;;;;20639;6861;118185;-80
2023/06/09 02:01:15;;;;;;;10.13;9.53;;;19.00;48.40;;;;;;20438;6861;338260;-82
2023/06/09 02:03:42;;;;;;;9.52;8.95;;;18.80;49.10;;;;;;20649;6861;118959;-82
2023/06/09 02:06:06;;;;;;;10.47;9.87;;;18.80;49.10;;;;;;20628;6861;122308;-82
2023/06/09 02:08:32;;;;;;;10.73;10.03;;;18.50;49.50;;;;;;20439;6861;312763;-80
2023/06/09 02:10:57;;;;;;;10.65;10.05;;;18.60;50.50;;;;;;20457;6861;310154;-80
2023/06/09 02:13:23;;;;;;;9.17;8.37;;;18.80;50.00;;;;;;20665;6861;117629;-83
2023/06/09 02:15:48;;;;;;;8.43;7.93;;;18.70;49.80;;;;;;20678;6861;118611;-80
2023/06/09 02:18:20;;;;;;;8.55;8.05;;;18.50;50.00;;;;;;20649;6861;117876;-80
2023/06/09 02:20:45;;;;;;;10.27;9.65;;;18.40;50.50;;;;;;20426;6861;313423;-82
2023/06/09 02:23:07;;;;;;;9.57;9.00;;;18.40;50.30;;;;;;20434;6861;345474;-82
2023/06/09 02:25:33;;;;;;;9.38;8.82;;;18.80;50.50;;;;;;20663;6861;119557;-79
2023/06/09 02:27:58;;;;;;;8.45;7.80;;;18.70;49.60;;;;;;20665;6861;118708;-80
2023/06/09 02:30:25;;;;;;;9.07;8.48;;;18.40;49.80;;;;;;20427;6861;281458;-80
2023/06/09 02:32:52;;;;;;;8.30;7.60;;;18.50;49.60;;;;;;20661;6861;122742;-80
2023/06/09 02:35:17;;;;;;;9.13;8.53;;;18.50;49.60;;;;;;20661;6861;120350;-80
2023/06/09 02:37:43;;;;;;;9.60;9.00;;;18.30;49.80;;;;;;20450;6861;337966;-83
2023/06/09 02:40:08;;;;;;;9.00;8.50;;;18.50;50.10;;;;;;20653;6859;117279;-82
2023/06/09 02:42:34;;;;;;;8.33;7.73;;;18.40;49.80;;;;;;20668;6860;120952;-80
2023/06/09 02:45:00;;;;;;;8.63;8.03;;;18.20;50.00;;;;;;20680;6860;120881;-82
2023/06/09 02:47:25;;;;;;;10.10;9.48;;;18.00;50.20;;;;;;20451;6860;292978;-80
2023/06/09 02:49:51;;;;;;;9.73;9.03;;;18.20;50.40;;;;;;20685;6860;118663;-82
2023/06/09 02:52:17;;;;;;;8.65;7.95;;;18.20;50.10;;;;;;20651;6860;146888;-82
2023/06/09 02:54:43;;;;;;;9.10;8.50;;;17.90;50.20;;;;;;20667;6860;124338;-83
2023/06/09 02:57:08;;;;;;;8.60;8.10;;;17.80;50.50;;;;;;20670;6860;121076;-81
2023/06/09 02:59:34;;;;;;;9.40;8.80;;;17.60;50.60;;;;;;20662;6861;119440;-79
2023/06/09 03:02:00;;;;;;;9.00;8.40;;;17.30;50.80;;;;;;20665;6861;120465;-78
2023/06/09 03:04:26;;;;;;;8.77;8.17;;;17.30;50.80;;;;;;20646;6861;117514;-79
2023/06/09 03:06:53;;;;;;;10.45;9.85;;;17.10;51.00;;;;;;20444;6861;338289;-82
2023/06/09 03:09:18;;;;;;;8.98;8.32;;;17.50;51.50;;;;;;20667;6861;117560;-79
2023/06/09 03:11:44;;;;;;;10.67;9.97;;;17.50;51.10;;;;;;20442;6861;308720;-80
2023/06/09 03:14:10;;;;;;;9.85;9.25;;;18.10;50.40;;;;;;20444;6861;279623;-79
2023/06/09 03:16:36;;;;;;;8.90;8.30;;;18.00;50.20;;;;;;20669;6861;118525;-79
2023/06/09 03:19:01;;;;;;;9.90;9.40;;;18.00;50.30;;;;;;20454;6861;339108;-79
2023/06/09 03:21:27;;;;;;;10.00;9.30;;;18.00;50.50;;;;;;20667;6861;118374;-79
2023/06/09 03:23:52;;;;;;;10.85;10.25;;;17.90;50.30;;;;;;20452;6861;309590;-82
2023/06/09 03:26:18;;;;;;;9.27;8.68;;;18.10;50.50;;;;;;20642;6861;124990;-78
2023/06/09 03:28:43;;;;;;;10.38;9.77;;;18.00;50.40;;;;;;20450;6861;313239;-79
2023/06/09 03:31:09;;;;;;;9.43;8.88;;;18.00;50.30;;;;;;20662;6861;117624;-80
2023/06/09 03:33:35;;;;;;;9.27;8.67;;;17.90;50.20;;;;;;20669;6861;120445;-82
2023/06/09 03:36:00;;;;;;;10.38;9.77;;;17.60;50.50;;;;;;20446;6861;291491;-79
2023/06/09 03:38:26;;;;;;;9.90;9.10;;;17.80;50.70;;;;;;20643;6861;118208;-81
2023/06/09 03:40:51;;;;;;;10.20;9.50;;;17.70;50.50;;;;;;20451;6861;308303;-79
2023/06/09 03:43:17;;;;;;;9.83;9.23;;;17.90;51.00;;;;;;20431;6861;325432;-78
2023/06/09 03:45:43;;;;;;;10.52;9.82;;;18.50;49.30;;;;;;20449;6861;309952;-81
2023/06/09 03:48:10;;;;;;;9.47;8.80;;;18.50;49.30;;;;;;20637;6861;130146;-79
2023/06/09 03:50:35;;;;;;;9.03;8.43;;;18.30;49.50;;;;;;20665;6859;119366;-81
2023/06/09 03:53:01;;;;;;;8.15;7.75;;;18.00;50.00;;;;;;20668;6860;117256;-81
2023/06/09 03:55:29;;;;;;;9.70;9.15;;;17.80;50.40;;;;;;20446;6860;308698;-79
2023/06/09 03:57:53;;;;;;;9.70;9.20;;;17.90;50.30;;;;;;20659;6860;120320;-79
2023/06/09 04:00:19;;;;;;;11.00;10.40;;;17.90;50.20;;;;;;20430;6860;337789;-79
2023/06/09 04:02:44;;;;;;;10.07;9.48;;;18.10;51.00;;;;;;20670;6860;117928;-80
2023/06/09 04:05:10;;;;;;;11.83;11.10;;;18.20;50.40;;;;;;20454;6860;308711;-80
2023/06/09 04:07:36;;;;;;;10.70;9.90;;;18.30;50.40;;;;;;20676;6860;117553;-79
2023/06/09 04:10:02;;;;;;;11.83;11.13;;;18.10;50.30;;;;;;20464;6861;315232;-79
2023/06/09 04:12:27;;;;;;;11.57;10.83;;;18.30;50.30;;;;;;20432;6861;308230;-79
2023/06/09 04:14:53;;;;;;;11.50;10.80;;;18.50;50.10;;;;;;20456;6861;301035;-81
2023/06/09 04:17:18;;;;;;;10.88;10.35;;;18.80;50.00;;;;;;20440;6861;280272;-79
2023/06/09 04:19:44;;;;;;;11.05;10.35;;;18.90;49.60;;;;;;20483;6861;342474;-79
2023/06/09 04:22:10;;;;;;;10.57;9.98;;;19.10;49.40;;;;;;20465;6861;306905;-82
2023/06/09 04:24:35;;;;;;;10.40;9.70;;;19.20;49.20;;;;;;20697;6861;116676;-81
2023/06/09 04:27:03;;;;;;;9.97;9.17;;;18.70;49.90;;;;;;20721;6861;118390;-80
2023/06/09 04:29:31;;;;;;;9.80;9.20;;;18.60;49.80;;;;;;20749;6861;116953;-82
2023/06/09 04:31:58;;;;;;;10.75;10.10;;;18.40;50.30;;;;;;20534;6861;336767;-82
2023/06/09 04:34:20;;;;;;;10.55;9.73;;;18.50;50.90;;;;;;20729;6861;126589;-84
2023/06/09 04:36:45;;;;;;;9.57;8.83;;;18.50;50.60;;;;;;20750;6861;119680;-81
2023/06/09 04:39:12;;;;;;;10.63;9.43;;;18.40;50.90;;;;;;20789;6861;67483;-80
2023/06/09 04:41:37;;;;;;;10.03;9.33;;;18.20;51.10;;;;;;20724;6861;117355;-80
2023/06/09 04:44:05;;;;;;;9.67;8.97;;;18.10;51.20;;;;;;20701;6861;117837;-80
2023/06/09 04:46:29;;;;;;;9.63;9.03;;;18.10;51.40;;;;;;20459;6861;309588;-80
2023/06/09 04:48:55;;;;;;;8.77;8.07;;;18.40;50.80;;;;;;20638;6861;117684;-80
2023/06/09 04:51:24;;;;;;;10.50;9.90;;;18.40;50.80;;;;;;20453;6861;278737;-80
2023/06/09 04:53:48;;;;;;;9.83;9.00;;;18.60;50.40;;;;;;20656;6861;120266;-81
2023/06/09 04:56:16;;;;;;;9.80;9.20;;;18.60;50.30;;;;;;20431;6861;309781;-80
2023/06/09 04:58:40;;;;;;;9.00;8.40;;;18.80;50.30;;;;;;20659;6861;117976;-80
2023/06/09 05:01:05;;;;;;;9.03;8.37;;;18.70;50.00;;;;;;20665;6861;117417;-82
2023/06/09 05:03:30;;;;;;;10.47;9.87;;;18.50;50.20;;;;;;20458;6859;309504;-80
2023/06/09 05:05:56;;;;;;;11.63;10.98;;;18.60;50.10;;;;;;20453;6860;295766;-80
2023/06/09 05:08:21;;;;;;;10.57;9.95;;;18.90;49.80;;;;;;20646;6860;118976;-80
2023/06/09 05:10:47;;;;;;;10.57;9.77;;;18.90;49.90;;;;;;20665;6860;120671;-80
2023/06/09 05:13:12;;;;;;;11.90;11.20;;;18.60;50.10;;;;;;20460;6860;283217;-79
2023/06/09 05:15:39;;;;;;;9.95;9.35;;;18.80;50.30;;;;;;20686;6860;118530;-80
2023/06/09 05:18:08;;;;;;;9.63;9.00;;;18.70;50.70;;;;;;20652;6860;119413;-80
2023/06/09 05:20:31;;;;;;;10.45;9.80;;;18.60;50.40;;;;;;20434;6860;338787;-81
2023/06/09 05:22:57;;;;;;;10.07;9.43;;;18.80;50.50;;;;;;20655;6861;118011;-79
2023/06/09 05:25:23;;;;;;;8.87;8.37;;;18.70;50.30;;;;;;20656;6861;117454;-79
2023/06/09 05:27:48;;;;;;;10.68;10.07;;;18.60;50.50;;;;;;20450;6861;307930;-78
2023/06/09 05:30:14;;;;;;;10.23;9.40;;;18.80;50.80;;;;;;20628;6861;118182;-81
2023/06/09 05:32:40;;;;;;;9.37;8.80;;;18.80;50.50;;;;;;20645;6861;120273;-80
2023/06/09 05:35:05;;;;;;;9.40;8.90;;;18.70;50.80;;;;;;20654;6861;121169;-79
2023/06/09 05:37:31;;;;;;;11.02;10.32;;;18.60;51.00;;;;;;20452;6861;279538;-79
2023/06/09 05:39:56;;;;;;;11.23;10.52;;;18.90;51.00;;;;;;20454;6861;308712;-79
2023/06/09 05:42:22;;;;;;;11.33;10.47;;;19.40;50.30;;;;;;20639;6861;119992;-79
2023/06/09 05:44:47;;;;;;;11.50;10.80;;;19.50;50.10;;;;;;20457;6861;280035;-79
2023/06/09 05:47:13;;;;;;;12.43;11.52;;;19.70;50.00;;;;;;20439;6861;338233;-79
2023/06/09 05:49:38;;;;;;;11.45;10.65;;;20.00;49.40;;;;;;20457;6861;311976;-79
2023/06/09 05:52:04;;;;;;;10.32;9.73;;;20.30;49.30;;;;;;20449;6861;313210;-80
2023/06/09 05:54:31;;;;;;;11.53;10.73;;;20.80;49.10;;;;;;20312;6861;308678;-79
2023/06/09 05:56:56;;;;;;;11.03;10.43;;;20.80;48.30;;;;;;20440;6861;279846;-79
2023/06/09 05:59:23;;;;;;;11.68;10.88;;;21.30;47.70;;;;;;20439;6861;309111;-79
2023/06/09 06:01:48;;;;;;;9.80;9.20;;;21.30;47.70;;;;;;20653;6861;117563;-79
2023/06/09 06:04:14;;;;;;;11.73;10.93;;;21.40;48.00;;;;;;20421;6861;342172;-79
2023/06/09 06:06:40;;;;;;;10.57;9.77;;;21.40;48.00;;;;;;20661;6861;119994;-79
2023/06/09 06:09:06;;;;;;;11.13;10.30;;;21.40;48.30;;;;;;20446;6861;309178;-79
2023/06/09 06:11:31;;;;;;;10.48;9.77;;;21.70;48.10;;;;;;20450;6861;281659;-79
2023/06/09 06:13:58;;;;;;;9.73;9.02;;;23.00;47.30;;;;;;20657;6859;118046;-80
2023/06/09 06:16:23;;;;;;;8.93;8.20;;;23.00;47.30;;;;;;20620;6860;120692;-79
2023/06/09 06:18:49;;;;;;;9.10;8.23;;;23.40;47.50;;;;;;20667;6860;123374;-81
2023/06/09 06:21:14;;;;;;;8.40;7.77;;;23.70;47.50;;;;;;20653;6860;119063;-80
2023/06/09 06:23:41;;;;;;;9.63;9.02;;;24.80;45.10;;;;;;20433;6860;308958;-79
2023/06/09 06:26:06;;;;;;;9.00;8.43;;;24.70;45.00;;;;;;20649;6860;123585;-78
2023/06/09 06:28:32;;;;;;;8.27;7.77;;;25.20;44.90;;;;;;20661;6860;117346;-78
2023/06/09 06:30:57;;;;;;;9.33;8.40;;;25.50;45.00;;;;;;20673;6860;118598;-79
2023/06/09 06:33:24;;;;;;;8.15;7.65;;;26.00;44.20;;;;;;20675;6861;117659;-80
2023/06/09 06:35:50;;;;;;;8.10;7.50;;;26.00;44.10;;;;;;20649;6861;120147;-79
2023/06/09 06:38:15;;;;;;;8.07;7.57;;;26.20;43.50;;;;;;20630;6861;127695;-78
2023/06/09 06:40:43;;;;;;;8.07;7.53;;;27.20;39.40;;;;;;20453;6861;282735;-78
2023/06/09 06:43:09;;;;;;;7.53;7.03;;;27.10;39.70;;;;;;20456;6861;339040;-78
2023/06/09 06:45:35;;;;;;;7.93;7.47;;;28.10;38.40;;;;;;20445;6861;279518;-78
2023/06/09 06:48:00;;;;;;;8.03;7.20;;;28.80;37.20;;;;;;20663;6861;117413;-78
2023/06/09 06:50:27;;;;;;;7.47;7.03;;;29.40;36.00;;;;;;20426;6861;308755;-79
2023/06/09 06:52:52;;;;;;;7.60;7.10;;;29.30;35.90;;;;;;20653;6861;117702;-79
2023/06/09 06:55:19;;;;;;;6.47;5.97;;;29.40;38.10;;;;;;20663;6861;117609;-78
2023/06/09 06:57:45;;;;;;;7.05;6.55;;;29.30;37.30;;;;;;20445;6861;341026;-79
2023/06/09 07:00:14;;;;;;;6.43;6.00;;;29.70;35.00;;;;;;20427;6861;292749;-78
2023/06/09 07:02:49;;;;;;;6.80;6.33;;;30.20;33.20;;;;;;20663;6861;118410;-79
2023/06/09 07:05:11;;;;;;;6.43;5.93;;;30.20;34.10;;;;;;20634;6861;117612;-79
2023/06/09 07:07:37;;;;;;;6.00;5.57;;;30.10;34.70;;;;;;20682;6861;117736;-78
2023/06/09 07:10:02;;;;;;;6.70;6.28;;;30.10;35.00;;;;;;20439;6861;283504;-79
2023/06/09 07:12:28;;;;;;;6.60;6.10;;;30.30;33.50;;;;;;20642;6861;117762;-78
2023/06/09 07:14:56;;;;;;;6.20;5.90;;;30.50;32.80;;;;;;20439;6861;314254;-79
2023/06/09 07:17:20;;;;;;;6.90;6.40;;;30.80;33.60;;;;;;20427;6861;279484;-78
2023/06/09 07:19:46;;;;;;;6.07;5.77;;;30.70;33.50;;;;;;20646;6861;117346;-78
2023/06/09 07:22:13;;;;;;;6.20;5.80;;;30.60;33.60;;;;;;20415;6861;303237;-78
2023/06/09 07:24:39;;;;;;;6.37;5.77;;;30.60;32.40;;;;;;20666;6859;117912;-79
2023/06/09 07:27:05;;;;;;;5.47;5.07;;;29.90;32.70;;;;;;20668;6860;117841;-78
2023/06/09 07:29:31;;;;;;;5.47;5.17;;;29.90;33.10;;;;;;20428;6860;295258;-78
2023/06/09 07:31:56;;;;;;;5.13;4.83;;;29.90;32.20;;;;;;20661;6860;121150;-78
2023/06/09 07:34:27;;;;;;;5.43;5.07;;;29.80;32.50;;;;;;20632;6860;117662;-78
2023/06/09 07:36:50;;;;;;;5.80;5.40;;;29.50;32.80;;;;;;20432;6860;306969;-78
2023/06/09 07:39:14;;;;;;;6.10;5.60;;;29.40;33.40;;;;;;20654;6860;117821;-82
2023/06/09 07:41:40;;;;;;;5.50;5.20;;;29.30;33.30;;;;;;20648;6860;117239;-78
2023/06/09 07:44:06;;;;;;;6.17;5.77;;;29.20;33.90;;;;;;20423;6860;308640;-81
2023/06/09 07:46:31;;;;;;;6.50;5.87;;;29.30;33.80;;;;;;20690;6845;122458;-78
2023/06/09 07:48:56;;;;;;;5.20;5.00;;;29.20;34.10;;;;;;20699;6845;117240;-79
2023/06/09 07:51:22;;;;;;;5.80;5.30;;;28.80;34.80;;;;;;20589;6876;120095;-79
2023/06/09 07:53:48;;;;;;;5.60;5.20;;;28.80;34.60;;;;;;20659;6860;118053;-79
2023/06/09 07:56:13;;;;;;;5.75;5.45;;;28.60;34.80;;;;;;20645;6860;123270;-79
2023/06/09 07:58:41;;;;;;;5.45;5.05;;;28.60;35.10;;;;;;20441;6860;279055;-78
2023/06/09 08:01:06;;;;;;;5.45;5.15;;;28.80;34.60;;;;;;20444;6860;279487;-78
2023/06/09 08:03:34;;;;;;;5.97;5.53;;;29.30;33.00;;;;;;20437;6860;314776;-78
2023/06/09 08:05:58;;;;;;;5.53;5.17;;;29.60;33.10;;;;;;20435;6860;305613;-77
2023/06/09 08:08:23;;;;;;;5.00;4.70;;;29.80;33.30;;;;;;20651;6860;123781;-78
2023/06/09 08:10:49;;;;;;;5.37;5.07;;;29.80;33.00;;;;;;20665;6860;119519;-77
2023/06/09 08:13:15;;;;;;;5.40;5.10;;;29.50;33.30;;;;;;20457;6860;309527;-78
2023/06/09 08:15:40;;;;;;;5.63;4.90;;;29.70;33.30;;;;;;20663;6860;117501;-79
2023/06/09 08:18:05;;;;;;;5.10;4.70;;;29.80;33.20;;;;;;20438;6860;309434;-79
2023/06/09 08:20:31;;;;;;;4.80;4.50;;;29.90;32.00;;;;;;20463;6860;279056;-79
2023/06/09 08:22:57;;;;;;;4.43;4.23;;;30.20;31.30;;;;;;20652;6860;121179;-78
2023/06/09 08:25:24;;;;;;;5.22;4.82;;;30.20;31.30;;;;;;20456;6860;279128;-79
2023/06/09 08:27:49;;;;;;;4.90;4.60;;;30.30;30.90;;;;;;20438;6860;309443;-76
2023/06/09 08:30:14;;;;;;;4.80;4.40;;;30.60;31.20;;;;;;20440;6860;310117;-75
2023/06/09 08:32:40;;;;;;;5.23;4.60;;;30.80;30.90;;;;;;20672;6860;122204;-75
2023/06/09 08:35:06;;;;;;;5.00;4.63;;;30.80;30.90;;;;;;20662;6860;119878;-75
2023/06/09 08:37:32;;;;;;;5.07;4.80;;;30.50;31.40;;;;;;20673;6858;120015;-76
2023/06/09 08:40:00;;;;;;;4.65;4.35;;;30.30;31.80;;;;;;20661;6859;119500;-73
2023/06/09 08:42:25;;;;;;;4.07;3.87;;;30.10;32.30;;;;;;20669;6859;117856;-72
2023/06/09 08:44:50;;;;;;;4.70;4.50;;;30.00;32.20;;;;;;20453;6860;285000;-81
2023/06/09 08:47:18;;;;;;;4.43;4.23;;;30.20;31.00;;;;;;20443;6860;278711;-81
2023/06/09 08:49:43;;;;;;;4.93;4.62;;;30.60;31.30;;;;;;20459;6860;293749;-75
2023/06/09 08:52:10;;;;;;;4.87;4.17;;;31.00;31.10;;;;;;20654;6860;117538;-75
2023/06/09 08:54:37;;;;;;;4.30;4.10;;;31.00;30.90;;;;;;20676;6860;119754;-77
2023/06/09 08:57:03;;;;;;;4.30;4.10;;;30.70;30.60;;;;;;20669;6860;119819;-76
2023/06/09 08:59:33;;;;;;;4.68;4.47;;;30.60;31.20;;;;;;20467;6860;342018;-74
2023/06/09 09:01:54;;;;;;;5.20;4.90;;;30.80;30.80;;;;;;20459;6860;308699;-74
2023/06/09 09:04:19;;;;;;;4.63;4.43;;;31.10;29.90;;;;;;20635;6860;117772;-75
2023/06/09 09:06:45;;;;;;;4.53;4.23;;;31.10;30.00;;;;;;20662;6860;118346;-74
2023/06/09 09:09:11;;;;;;;5.12;4.78;;;30.90;31.00;;;;;;20409;6860;313188;-75
2023/06/09 09:11:37;;;;;;;5.27;4.87;;;30.90;30.90;;;;;;20656;6860;117358;-74
2023/06/09 09:14:09;;;;;;;5.43;5.13;;;30.90;30.80;;;;;;20656;6860;119565;-78
2023/06/09 09:16:34;;;;;;;5.13;4.80;;;30.80;31.00;;;;;;20656;6860;120136;-74
2023/06/09 09:19:00;;;;;;;5.70;5.20;;;30.70;31.40;;;;;;20447;6860;308965;-74
2023/06/09 09:21:26;;;;;;;5.43;5.07;;;31.00;31.10;;;;;;20666;6860;118505;-74
2023/06/09 09:24:03;;;;;;;5.40;5.00;;;31.20;31.10;;;;;;20465;6860;308194;-75
2023/06/09 09:26:29;;;;;;;4.70;4.47;;;31.50;30.60;;;;;;20432;6860;309526;-75
2023/06/09 09:28:55;;;;;;;5.00;4.70;;;31.90;29.40;;;;;;20677;6860;117618;-75
2023/06/09 09:31:20;;;;;;;4.23;4.03;;;31.90;29.50;;;;;;20669;6860;120342;-75
2023/06/09 09:33:45;;;;;;;4.85;4.37;;;31.60;29.60;;;;;;20462;6860;279049;-75
2023/06/09 09:36:11;;;;;;;5.10;4.70;;;31.70;29.60;;;;;;20437;6860;310756;-75
2023/06/09 09:38:36;;;;;;;7.00;3.83;;;31.90;29.40;;;;;;20666;6860;118839;-75
2023/06/09 09:41:02;;;;;;;4.30;4.00;;;31.80;29.20;;;;;;20457;6860;309073;-73
2023/06/09 09:43:27;;;;;;;4.63;4.23;;;31.80;29.40;;;;;;20660;6860;123299;-74
2023/06/09 09:45:53;;;;;;;4.60;4.30;;;31.70;29.70;;;;;;20446;6860;313197;-76
2023/06/09 09:48:21;;;;;;;4.10;3.90;;;31.90;29.60;;;;;;20627;6858;119982;-74
2023/06/09 09:50:44;;;;;;;3.57;3.47;;;31.80;29.00;;;;;;20666;6859;117939;-74
2023/06/09 09:53:11;;;;;;;4.18;3.87;;;31.80;29.10;;;;;;20454;6859;315056;-74
2023/06/09 09:55:37;;;;;;;4.27;3.97;;;31.80;29.10;;;;;;20664;6860;117983;-74
2023/06/09 09:58:06;;;;;;;3.63;3.43;;;31.90;29.40;;;;;;20666;6860;117394;-74
2023/06/09 10:00:32;;;;;;;3.90;3.70;;;31.90;29.50;;;;;;20675;6860;117436;-74
2023/06/09 10:02:57;;;;;;;4.13;3.93;;;31.90;29.40;;;;;;20672;6860;117408;-74
2023/06/09 10:05:23;;;;;;;4.00;3.70;;;31.80;29.30;;;;;;20661;6860;117789;-74
2023/06/09 10:07:51;;;;;;;4.10;3.80;;;31.80;29.00;;;;;;20455;6860;279760;-74
2023/06/09 10:10:15;;;;;;;3.90;3.70;;;31.90;29.20;;;;;;20437;6860;291357;-75
2023/06/09 10:12:40;;;;;;;3.72;3.42;;;32.30;28.40;;;;;;20459;6860;278910;-76
2023/06/09 10:15:08;;;;;;;3.80;3.50;;;32.60;28.40;;;;;;20477;6860;280316;-78
2023/06/09 10:17:32;;;;;;;5.73;3.30;;;32.90;27.90;;;;;;20675;6860;121255;-74
2023/06/09 10:19:58;;;;;;;3.78;3.58;;;32.90;27.90;;;;;;20448;6860;310857;-75
2023/06/09 10:22:24;;;;;;;4.10;3.87;;;32.90;27.50;;;;;;20663;6860;117678;-72
2023/06/09 10:24:50;;;;;;;3.53;3.27;;;32.60;27.70;;;;;;20697;6860;120162;-72
2023/06/09 10:27:16;;;;;;;3.60;3.40;;;32.60;27.50;;;;;;20688;6860;116841;-72
2023/06/09 10:29:43;;;;;;;4.10;3.80;;;32.40;27.70;;;;;;20470;6860;279800;-72
2023/06/09 10:32:08;;;;;;;3.33;3.13;;;32.50;27.60;;;;;;20660;6860;121240;-76
2023/06/09 10:34:34;;;;;;;3.80;3.50;;;32.50;27.60;;;;;;20438;6860;313078;-76
2023/06/09 10:37:00;;;;;;;3.97;3.67;;;32.70;27.50;;;;;;20458;6860;279042;-74
2023/06/09 10:39:26;;;;;;;3.90;3.70;;;33.20;26.40;;;;;;20485;6860;280206;-76
2023/06/09 10:41:55;;;;;;;3.97;3.67;;;33.10;26.30;;;;;;20645;6860;119425;-76
2023/06/09 10:44:24;;;;;;;3.80;3.60;;;32.80;26.70;;;;;;20635;6860;143915;-76
2023/06/09 10:46:50;;;;;;;3.90;3.70;;;32.80;26.60;;;;;;20441;6860;295599;-77
2023/06/09 10:49:26;;;;;;;4.00;3.80;;;32.90;26.10;;;;;;20450;6860;309118;-78
2023/06/09 10:51:51;;;;;;;4.10;3.90;;;32.80;26.00;;;;;;20453;6860;279107;-72
2023/06/09 10:54:17;;;;;;;3.50;3.30;;;32.80;26.00;;;;;;20651;6860;129286;-72
2023/06/09 10:56:47;;;;;;;4.25;3.95;;;32.50;26.60;;;;;;20460;6860;279187;-73
2023/06/09 10:59:28;;;;;;;3.83;3.63;;;32.50;26.70;;;;;;20453;6860;290259;-75
2023/06/09 11:02:00;;;;;;;4.05;3.75;;;32.70;26.60;;;;;;20464;6859;341719;-74
2023/06/09 11:04:43;;;;;;;4.10;3.90;;;32.90;25.90;;;;;;20444;6859;283298;-73
2023/06/09 11:07:13;;;;;;;92.63;14.40;;;33.00;26.20;;;;;;20667;6860;117263;-76
2023/06/09 11:09:51;;;;;;;3.93;3.70;;;32.90;26.30;;;;;;20452;6860;309017;-75
2023/06/09 11:12:20;;;;;;;3.77;3.57;;;32.90;25.70;;;;;;20449;6860;279758;-72
2023/06/09 11:14:46;;;;;;;4.12;3.80;;;32.90;25.40;;;;;;20123;6860;308989;-72
2023/06/09 11:17:15;;;;;;;4.10;3.70;;;33.00;25.90;;;;;;20458;6860;312403;-72
2023/06/09 11:19:40;;;;;;;3.77;3.57;;;33.00;25.60;;;;;;20459;6860;307211;-74
2023/06/09 11:22:06;;;;;;;6.55;3.53;;;33.00;25.50;;;;;;20650;6860;123347;-73
2023/06/09 11:24:45;;;;;;;3.65;3.45;;;32.80;25.80;;;;;;20458;6860;279863;-71
2023/06/09 11:27:20;;;;;;;4.03;3.80;;;32.80;26.80;;;;;;20669;6860;117300;-71
2023/06/09 11:30:05;;;;;;;4.00;3.70;;;32.80;26.80;;;;;;20680;6860;117214;-71
2023/06/09 11:32:45;;;;;;;3.50;3.30;;;32.70;26.40;;;;;;20579;6860;67019;-72
2023/06/09 11:35:30;;;;;;;3.20;3.10;;;32.50;26.40;;;;;;20673;6860;117199;-72
2023/06/09 11:37:58;;;;;;;3.40;3.20;;;32.30;26.80;;;;;;20665;6860;117209;-75
2023/06/09 11:40:24;;;;;;;3.80;3.60;;;32.10;26.80;;;;;;20435;6860;314019;-74
2023/06/09 11:42:51;;;;;;;3.40;3.23;;;32.20;26.10;;;;;;20631;6860;117529;-71
2023/06/09 11:45:15;;;;;;;4.00;3.80;;;32.20;25.90;;;;;;20438;6860;283360;-71
2023/06/09 11:47:41;;;;;;;3.43;3.23;;;32.30;25.40;;;;;;20665;6860;117913;-70
2023/06/09 11:50:07;;;;;;;3.80;3.60;;;32.20;25.70;;;;;;20644;6860;120666;-73
2023/06/09 11:52:33;;;;;;;3.60;3.40;;;32.10;25.90;;;;;;20444;6860;308604;-73
2023/06/09 11:54:58;;;;;;;3.85;3.42;;;32.20;25.90;;;;;;20450;6860;312308;-73
2023/06/09 11:57:25;;;;;;;3.20;3.10;;;32.40;25.70;;;;;;20657;6860;117335;-73
2023/06/09 11:59:50;;;;;;;3.60;3.50;;;32.40;25.90;;;;;;20448;6860;308830;-74
2023/06/09 12:02:16;;;;;;;3.53;3.33;;;32.40;25.50;;;;;;20629;6860;144091;-76
2023/06/09 12:04:42;;;;;;;3.30;2.97;;;32.30;25.40;;;;;;20661;6860;121516;-73
2023/06/09 12:07:10;;;;;;;3.60;3.30;;;32.10;25.50;;;;;;20650;6860;118089;-75
2023/06/09 12:09:36;;;;;;;3.30;3.10;;;32.00;26.00;;;;;;20668;6860;118520;-73
2023/06/09 12:12:01;;;;;;;4.75;3.20;;;31.80;26.10;;;;;;20420;6858;279726;-72
2023/06/09 12:14:27;;;;;;;3.50;3.17;;;32.00;25.90;;;;;;20596;6859;121277;-72
2023/06/09 12:16:52;;;;;;;3.60;3.30;;;32.00;25.60;;;;;;20452;6859;309183;-72
2023/06/09 12:19:18;;;;;;;3.30;3.10;;;32.00;25.70;;;;;;20665;6860;117733;-72
2023/06/09 12:21:48;;;;;;;3.20;3.00;;;32.00;25.90;;;;;;20673;6860;117417;-73
2023/06/09 12:24:13;;;;;;;3.30;3.10;;;32.00;26.30;;;;;;20428;6860;278564;-72
2023/06/09 12:26:42;;;;;;;3.30;3.00;;;32.20;25.90;;;;;;20456;6860;278753;-72
2023/06/09 12:29:08;;;;;;;3.17;2.93;;;32.50;25.80;;;;;;20666;6860;117245;-73